Time;durP1;ratioP1;P1;durP2;ratioP2;P2;SDS_P1;SDS_P2;PMS_P1;PMS_P2;Temp;Humidity;BMP_temperature;BMP_pressure;BME280_temperature;BME280_humidity;BME280_pressure;Samples;Min_cycle;Max_cycle;Signal;HPM_P1;HPM_P2
2023/12/06 00:00:38;;;;;;;111.70;58.22;;;;;;;-2.38;100.00;99304.84;4915899;29;20032;-91
2023/12/06 00:03:05;;;;;;;114.97;62.30;;;;;;;-2.43;100.00;99306.53;4915382;29;20059;-91
2023/12/06 00:05:32;;;;;;;119.25;59.33;;;;;;;-2.71;100.00;99261.47;4900129;29;20040;-90
2023/12/06 00:07:58;;;;;;;114.55;58.47;;;;;;;-2.41;100.00;99298.88;4884435;29;20075;-90
2023/12/06 00:10:24;;;;;;;119.53;60.95;;;;;;;-2.42;100.00;99297.19;4915661;29;20123;-91
2023/12/06 00:12:50;;;;;;;127.20;61.33;;;;;;;-2.44;100.00;99297.19;4915608;29;20068;-91
2023/12/06 00:15:16;;;;;;;129.00;63.63;;;;;;;-2.40;100.00;99292.91;4961374;28;20039;-91
2023/12/06 00:17:42;;;;;;;119.68;60.95;;;;;;;-2.44;100.00;99281.03;4957791;28;20424;-91
2023/12/06 00:20:08;;;;;;;139.05;69.75;;;;;;;-2.34;100.00;99293.78;4957799;28;20451;-91
2023/12/06 00:22:34;;;;;;;129.52;66.07;;;;;;;-2.34;100.00;99293.78;4957790;28;20039;-90
2023/12/06 00:25:00;;;;;;;178.00;82.88;;;;;;;-2.32;100.00;99291.22;4957779;28;20137;-91
2023/12/06 00:27:26;;;;;;;130.73;68.90;;;;;;;-2.91;100.00;99182.47;4957455;28;20510;-90
2023/12/06 00:29:53;;;;;;;134.10;70.25;;;;;;;-2.33;100.00;99287.81;4957885;28;20464;-90
2023/12/06 00:32:20;;;;;;;129.23;66.03;;;;;;;-2.43;100.00;99273.38;4973421;28;20093;-91
2023/12/06 00:34:46;;;;;;;121.38;63.22;;;;;;;-2.43;100.00;99278.50;4957714;28;20512;-90
2023/12/06 00:37:11;;;;;;;121.85;62.40;;;;;;;-2.35;100.00;99288.69;4957303;28;20038;-90
2023/12/06 00:39:37;;;;;;;111.68;57.00;;;;;;;-2.44;100.00;99281.03;4957548;28;20051;-90
2023/12/06 00:42:03;;;;;;;120.60;62.53;;;;;;;-2.57;100.00;99265.75;4957179;28;20402;-89
2023/12/06 00:44:29;;;;;;;127.82;64.85;;;;;;;-2.46;100.00;99291.22;4957728;28;20027;-91
2023/12/06 00:46:57;;;;;;;122.78;61.42;;;;;;;-2.48;100.00;99280.19;4974253;28;20045;-90
2023/12/06 00:49:22;;;;;;;123.10;59.88;;;;;;;-2.45;100.00;99282.72;4957136;28;20042;-91
2023/12/06 00:51:48;;;;;;;110.65;59.17;;;;;;;-2.45;100.00;99287.81;4957300;28;20420;-90
2023/12/06 00:54:14;;;;;;;118.18;61.30;;;;;;;-2.42;100.00;99289.53;4957251;28;20043;-90
2023/12/06 00:56:41;;;;;;;120.53;61.17;;;;;;;-2.64;100.00;99261.50;4974639;28;20042;-90
2023/12/06 00:59:08;;;;;;;118.68;60.97;;;;;;;-2.44;100.00;99286.13;4956792;28;20031;-90
2023/12/06 01:01:33;;;;;;;117.70;61.85;;;;;;;-2.45;100.00;99292.94;4940329;28;20129;-90
2023/12/06 01:03:59;;;;;;;119.70;63.05;;;;;;;-2.49;100.00;99290.38;4957113;28;20493;-91
2023/12/06 01:06:26;;;;;;;113.30;59.70;;;;;;;-2.48;100.00;99298.06;4954084;28;20038;-90
2023/12/06 01:08:52;;;;;;;118.45;59.15;;;;;;;-2.46;100.00;99296.34;4956996;28;20042;-90
2023/12/06 01:11:17;;;;;;;113.40;57.70;;;;;;;-2.43;100.00;99295.50;4955937;28;20027;-90
2023/12/06 01:13:44;;;;;;;114.60;58.20;;;;;;;-2.42;100.00;99298.03;4956796;28;20034;-90
2023/12/06 01:16:09;;;;;;;112.78;57.15;;;;;;;-2.45;100.00;99297.19;4957176;28;20400;-90
2023/12/06 01:18:36;;;;;;;107.88;56.92;;;;;;;-2.52;100.00;99297.19;4953985;28;20031;-90
2023/12/06 01:21:02;;;;;;;121.13;59.55;;;;;;;-2.52;100.00;99294.66;4956906;28;20034;-90
2023/12/06 01:23:28;;;;;;;125.85;62.72;;;;;;;-2.49;100.00;99288.69;4923789;28;20035;-90
2023/12/06 01:25:55;;;;;;;125.03;61.70;;;;;;;-2.56;100.00;99272.53;4956522;28;20074;-88
2023/12/06 01:28:22;;;;;;;133.63;62.45;;;;;;;-2.56;100.00;99274.25;4932927;29;20035;-89
2023/12/06 01:30:49;;;;;;;132.00;63.97;;;;;;;-2.45;100.00;99294.63;4933062;29;20114;-90
2023/12/06 01:33:15;;;;;;;129.25;61.88;;;;;;;-2.39;100.00;99284.44;4916811;29;20036;-90
2023/12/06 01:35:42;;;;;;;124.82;60.03;;;;;;;-2.43;100.00;99285.28;4917095;29;20032;-89
2023/12/06 01:38:08;;;;;;;116.28;59.45;;;;;;;-2.40;100.00;99290.38;4916525;29;20075;-90
2023/12/06 01:40:37;;;;;;;109.25;56.67;;;;;;;-2.39;100.00;99294.66;4916997;29;20078;-90
2023/12/06 01:43:04;;;;;;;127.78;61.58;;;;;;;-2.45;100.00;99292.09;4916903;29;20123;-89
2023/12/06 01:45:30;;;;;;;117.35;58.13;;;;;;;-2.42;100.00;99287.84;4916796;29;20076;-90
2023/12/06 01:47:56;;;;;;;130.52;60.50;;;;;;;-2.42;100.00;99294.63;4916948;29;20433;-90
2023/12/06 01:50:24;;;;;;;128.82;59.63;;;;;;;-2.43;100.00;99290.41;4916561;29;20532;-90
2023/12/06 01:52:58;;;;;;;136.15;64.95;;;;;;;-2.39;100.00;99294.66;4932772;29;20432;-90
2023/12/06 01:55:25;;;;;;;135.13;62.13;;;;;;;-2.59;100.00;99261.50;4916520;29;20435;-89
2023/12/06 01:57:52;;;;;;;140.45;63.08;;;;;;;-2.40;100.00;99295.47;4916720;29;20048;-90
2023/12/06 02:00:19;;;;;;;121.40;61.10;;;;;;;-2.42;100.00;99287.84;4916582;29;20047;-90
2023/12/06 02:02:46;;;;;;;134.00;60.88;;;;;;;-2.39;100.00;99289.53;4916768;29;20036;-89
2023/12/06 02:05:12;;;;;;;118.55;56.95;;;;;;;-2.39;100.00;99279.34;4917779;29;20040;-90
2023/12/06 02:07:41;;;;;;;117.22;58.17;;;;;;;-2.45;100.00;99267.44;4932445;29;20130;-90
2023/12/06 02:10:09;;;;;;;108.22;54.45;;;;;;;-2.29;100.00;99292.06;4932382;29;20075;-89
2023/12/06 02:12:37;;;;;;;109.55;53.42;;;;;;;-2.30;100.00;99282.72;4916771;29;20489;-90
2023/12/06 02:15:05;;;;;;;115.20;57.33;;;;;;;-2.48;100.00;99262.34;4932234;29;20043;-91
2023/12/06 02:17:32;;;;;;;109.38;54.67;;;;;;;-2.33;100.00;99282.72;4916417;29;20427;-90
2023/12/06 02:19:59;;;;;;;108.47;55.25;;;;;;;-2.31;100.00;99272.53;4932411;29;20405;-90
2023/12/06 02:22:26;;;;;;;114.20;56.75;;;;;;;-2.27;100.00;99277.63;4931525;29;20043;-90
2023/12/06 02:24:56;;;;;;;114.68;56.35;;;;;;;-2.35;100.00;99245.34;4932183;29;20040;-90
2023/12/06 02:27:21;;;;;;;113.90;59.90;;;;;;;-2.30;100.00;99259.78;4931976;29;20106;-89
2023/12/06 02:29:47;;;;;;;115.00;58.90;;;;;;;-2.24;100.00;99266.56;4916524;29;20055;-90
2023/12/06 02:32:17;;;;;;;117.57;58.78;;;;;;;-2.26;100.00;99270.84;4932179;29;20039;-90
2023/12/06 02:34:46;;;;;;;115.68;60.15;;;;;;;-2.21;100.00;99279.31;4932602;29;20032;-90
2023/12/06 02:37:14;;;;;;;118.50;60.65;;;;;;;-2.22;100.00;99276.78;4953719;28;20524;-89
2023/12/06 02:39:44;;;;;;;114.18;57.88;;;;;;;-2.28;100.00;99260.59;4973633;28;20061;-90
2023/12/06 02:42:11;;;;;;;104.75;55.08;;;;;;;-2.20;100.00;99269.97;4955034;28;20047;-90
2023/12/06 02:44:38;;;;;;;110.82;57.47;;;;;;;-2.27;100.00;99264.03;4973274;28;20121;-90
2023/12/06 02:47:04;;;;;;;104.20;55.08;;;;;;;-2.28;100.00;99259.75;4913326;29;20126;-90
2023/12/06 02:49:30;;;;;;;108.55;57.22;;;;;;;-2.27;100.00;99266.59;4898110;29;20044;-90
2023/12/06 02:51:56;;;;;;;111.03;57.38;;;;;;;-2.27;100.00;99264.03;4898794;29;20059;-90
2023/12/06 02:54:23;;;;;;;112.00;55.65;;;;;;;-2.34;100.00;99241.94;4916079;29;20044;-91
2023/12/06 02:56:50;;;;;;;109.45;55.78;;;;;;;-2.16;100.00;99261.44;4956224;29;20055;-90
2023/12/06 02:59:16;;;;;;;104.63;54.33;;;;;;;-2.18;100.00;99256.38;4940077;29;20028;-91
2023/12/06 03:02:02;;;;;;;111.38;54.70;;;;;;;-2.16;100.00;99267.41;4917853;29;20049;-90
2023/12/06 03:04:28;;;;;;;111.70;55.15;;;;;;;-2.20;100.00;99255.50;4900401;29;20045;-91
2023/12/06 03:06:53;;;;;;;105.07;55.53;;;;;;;-2.16;100.00;99261.44;4898208;29;20040;-91
2023/12/06 03:09:22;;;;;;;111.47;54.92;;;;;;;-2.12;100.00;99264.00;4897771;29;20048;-90
2023/12/06 03:11:48;;;;;;;103.13;54.00;;;;;;;-2.13;100.00;99259.75;4896578;29;20351;-90
2023/12/06 03:14:14;;;;;;;103.47;52.35;;;;;;;-2.21;100.00;99243.59;4882314;29;20345;-90
2023/12/06 03:16:40;;;;;;;106.72;54.47;;;;;;;-2.42;100.00;99213.88;4878467;29;20089;-91
2023/12/06 03:19:06;;;;;;;102.13;54.50;;;;;;;-2.38;100.00;99219.81;4878015;29;20131;-91
2023/12/06 03:21:32;;;;;;;108.00;53.80;;;;;;;-2.08;100.00;99262.28;4910394;29;20083;-90
2023/12/06 03:24:00;;;;;;;102.50;52.78;;;;;;;-2.27;100.00;99234.28;4913025;29;20466;-89
2023/12/06 03:26:27;;;;;;;100.50;53.30;;;;;;;-2.05;100.00;99255.47;4875049;29;20052;-90
2023/12/06 03:28:53;;;;;;;113.05;56.45;;;;;;;-2.12;100.00;99245.28;4875412;29;20569;-90
2023/12/06 03:31:21;;;;;;;110.60;56.85;;;;;;;-2.06;100.00;99248.69;4874744;29;20120;-90
2023/12/06 03:33:47;;;;;;;109.03;54.97;;;;;;;-2.16;100.00;99229.13;4877134;29;20479;-90
2023/12/06 03:36:14;;;;;;;117.05;55.72;;;;;;;-2.15;100.00;99227.44;4878390;29;20446;-90
2023/12/06 03:38:40;;;;;;;112.90;58.22;;;;;;;-2.04;100.00;99244.41;4862658;29;20143;-90
2023/12/06 03:41:06;;;;;;;102.25;54.90;;;;;;;-2.02;100.00;99241.88;4878076;29;20541;-90
2023/12/06 03:43:33;;;;;;;111.72;56.40;;;;;;;-2.04;100.00;99236.75;4878917;29;20037;-90
2023/12/06 03:45:59;;;;;;;108.35;56.72;;;;;;;-1.96;100.00;99248.66;4878430;29;20041;-91
2023/12/06 03:48:25;;;;;;;105.07;54.35;;;;;;;-1.85;100.00;99244.38;4862762;29;20427;-90
2023/12/06 03:50:51;;;;;;;104.47;56.08;;;;;;;-1.77;100.00;99248.59;4878417;29;20048;-90
2023/12/06 03:53:17;;;;;;;96.88;54.22;;;;;;;-1.66;100.00;99252.81;4877495;29;20040;-91
2023/12/06 03:56:03;;;;;;;106.28;54.53;;;;;;;-1.63;100.00;99260.47;4881504;29;20439;-90
2023/12/06 03:58:29;;;;;;;104.82;57.05;;;;;;;-1.58;100.00;99264.69;4843824;29;20041;-91
2023/12/06 04:00:57;;;;;;;110.85;57.97;;;;;;;-1.54;100.00;99268.94;4859854;29;20034;-92
2023/12/06 04:03:23;;;;;;;114.38;60.50;;;;;;;-1.57;100.00;99265.53;4861325;29;20044;-91
2023/12/06 04:05:49;;;;;;;107.45;55.78;;;;;;;-1.44;100.00;99266.34;4878265;29;20052;-91
2023/12/06 04:08:17;;;;;;;114.15;58.42;;;;;;;-1.46;100.00;99268.91;4859203;29;20046;-91
2023/12/06 04:10:42;;;;;;;119.88;64.05;;;;;;;-1.59;100.00;99255.34;4822661;29;20399;-91
2023/12/06 04:13:08;;;;;;;133.35;75.80;;;;;;;-1.59;100.00;99265.56;4806943;29;20039;-90
2023/12/06 04:15:35;;;;;;;119.15;63.10;;;;;;;-1.64;100.00;99271.53;4807457;29;20034;-90
2023/12/06 04:18:00;;;;;;;122.55;61.50;;;;;;;-1.70;100.00;99272.41;4824098;29;20076;-90
2023/12/06 04:20:27;;;;;;;118.97;63.40;;;;;;;-1.66;100.00;99268.13;4825267;29;20065;-90
2023/12/06 04:22:53;;;;;;;113.18;64.95;;;;;;;-1.68;100.00;99265.59;4825736;29;20045;-90
2023/12/06 04:25:20;;;;;;;108.47;56.05;;;;;;;-1.90;100.00;99249.47;4825148;29;20119;-90
2023/12/06 04:27:46;;;;;;;105.55;57.30;;;;;;;-1.81;100.00;99263.94;4825306;29;20106;-90
2023/12/06 04:30:14;;;;;;;101.85;54.97;;;;;;;-1.76;100.00;99272.44;4854617;29;20041;-91
2023/12/06 04:32:42;;;;;;;107.07;57.05;;;;;;;-1.73;100.00;99272.41;4862029;29;20588;-90
2023/12/06 04:35:10;;;;;;;107.93;57.20;;;;;;;-1.79;100.00;99263.06;4861805;29;20044;-91
2023/12/06 04:37:38;;;;;;;116.78;60.22;;;;;;;-1.79;100.00;99270.72;4859044;29;20033;-91
2023/12/06 04:40:05;;;;;;;143.30;68.78;;;;;;;-1.71;100.00;99285.19;4892262;29;20056;-91
2023/12/06 04:42:33;;;;;;;152.30;71.93;;;;;;;-1.76;100.00;99272.44;4924447;29;20058;-90
2023/12/06 04:45:01;;;;;;;150.20;70.88;;;;;;;-1.72;100.00;99284.34;4917260;29;20039;-90
2023/12/06 04:47:29;;;;;;;137.77;64.43;;;;;;;-1.61;100.00;99282.56;4933471;29;20417;-91
2023/12/06 04:49:55;;;;;;;128.20;65.38;;;;;;;-1.58;100.00;99285.13;4918073;29;20039;-91
2023/12/06 04:52:21;;;;;;;146.68;72.45;;;;;;;-1.58;100.00;99294.50;4917708;29;20043;-91
2023/12/06 04:54:48;;;;;;;150.75;72.60;;;;;;;-1.62;100.00;99288.53;4895733;29;20047;-90
2023/12/06 04:57:14;;;;;;;182.10;80.97;;;;;;;-1.66;100.00;99291.97;4857942;29;20534;-89
2023/12/06 04:59:40;;;;;;;144.93;67.93;;;;;;;-1.72;100.00;99291.16;4843353;29;20444;-90
2023/12/06 05:02:07;;;;;;;181.70;78.65;;;;;;;-1.72;100.00;99286.03;4843218;29;20052;-90
2023/12/06 05:04:32;;;;;;;132.77;67.10;;;;;;;-1.74;100.00;99291.13;4839825;29;20045;-90
2023/12/06 05:07:01;;;;;;;140.07;66.78;;;;;;;-1.76;100.00;99287.75;4824799;29;20042;-90
2023/12/06 05:09:29;;;;;;;116.25;59.17;;;;;;;-1.80;100.00;99293.72;4824225;29;20456;-91
2023/12/06 05:11:55;;;;;;;111.25;56.20;;;;;;;-1.85;100.00;99288.63;4824471;29;20122;-90
2023/12/06 05:14:24;;;;;;;126.75;63.83;;;;;;;-1.85;100.00;99286.06;4839881;29;20043;-90
2023/12/06 05:16:51;;;;;;;124.47;63.13;;;;;;;-1.85;100.00;99286.06;4842981;29;20418;-90
2023/12/06 05:19:17;;;;;;;126.80;64.15;;;;;;;-1.86;100.00;99293.72;4842423;29;20037;-90
2023/12/06 05:21:44;;;;;;;123.70;61.50;;;;;;;-1.99;100.00;99269.91;4858198;29;20419;-90
2023/12/06 05:24:14;;;;;;;125.38;62.95;;;;;;;-1.80;100.00;99301.38;4842573;29;20507;-90
2023/12/06 05:26:40;;;;;;;124.18;61.15;;;;;;;-1.86;100.00;99302.22;4858107;29;20485;-90
2023/12/06 05:29:07;;;;;;;119.47;58.70;;;;;;;-1.91;100.00;99291.19;4857770;29;20462;-90
2023/12/06 05:31:33;;;;;;;135.18;67.60;;;;;;;-1.83;100.00;99302.22;4850323;29;20426;-90
2023/12/06 05:33:58;;;;;;;137.02;68.60;;;;;;;-1.96;100.00;99292.88;4899068;29;20033;-91
2023/12/06 05:36:27;;;;;;;135.05;67.50;;;;;;;-1.91;100.00;99313.31;4930253;29;20552;-90
2023/12/06 05:38:53;;;;;;;145.50;69.63;;;;;;;-1.93;100.00;99310.75;4913709;29;20055;-89
2023/12/06 05:41:19;;;;;;;155.20;72.25;;;;;;;-1.97;100.00;99314.16;4913750;29;20044;-90
2023/12/06 05:43:46;;;;;;;136.68;70.45;;;;;;;-2.05;100.00;99313.31;4914085;29;20044;-90
2023/12/06 05:46:12;;;;;;;132.30;66.95;;;;;;;-2.04;100.00;99320.97;4913624;29;20032;-90
2023/12/06 05:48:38;;;;;;;134.35;68.63;;;;;;;-1.99;100.00;99304.81;4914070;29;20036;-90
2023/12/06 05:51:04;;;;;;;128.18;65.47;;;;;;;-1.98;100.00;99317.59;4913713;29;20100;-90
2023/12/06 05:53:30;;;;;;;131.73;68.40;;;;;;;-2.01;100.00;99315.03;4932541;29;20419;-89
2023/12/06 05:55:56;;;;;;;128.80;67.00;;;;;;;-2.01;100.00;99313.31;4935613;29;20067;-89
2023/12/06 05:58:23;;;;;;;120.30;63.90;;;;;;;-2.04;100.00;99308.22;4935603;29;20512;-89
2023/12/06 06:00:51;;;;;;;121.43;64.25;;;;;;;-2.12;100.00;99307.38;4935936;29;20369;-91
2023/12/06 06:03:17;;;;;;;135.23;68.00;;;;;;;-2.06;100.00;99320.13;4935927;29;20107;-92
2023/12/06 06:05:43;;;;;;;127.40;63.67;;;;;;;-2.17;100.00;99300.56;4935871;29;20035;-91
2023/12/06 06:08:10;;;;;;;131.60;66.55;;;;;;;-2.09;100.00;99322.69;4935895;29;20135;-91
2023/12/06 06:10:36;;;;;;;129.48;68.18;;;;;;;-2.17;100.00;99305.69;4935646;29;20039;-91
2023/12/06 06:13:02;;;;;;;140.57;71.35;;;;;;;-2.05;100.00;99320.97;4935765;29;20039;-91
2023/12/06 06:15:28;;;;;;;119.60;62.80;;;;;;;-2.09;100.00;99314.19;4938568;28;20526;-91
2023/12/06 06:17:54;;;;;;;127.00;68.78;;;;;;;-1.99;100.00;99325.22;4956084;28;20030;-90
2023/12/06 06:20:21;;;;;;;124.97;63.63;;;;;;;-2.00;100.00;99324.38;4955711;28;20090;-91
2023/12/06 06:22:47;;;;;;;124.65;65.47;;;;;;;-2.08;100.00;99311.63;4956179;28;20066;-91
2023/12/06 06:25:14;;;;;;;133.13;68.10;;;;;;;-2.14;100.00;99298.03;4956283;28;20030;-91
2023/12/06 06:27:40;;;;;;;132.05;69.30;;;;;;;-1.98;100.00;99325.25;4938986;28;20035;-91
2023/12/06 06:30:06;;;;;;;134.52;66.72;;;;;;;-2.01;100.00;99325.22;4916407;29;20134;-91
2023/12/06 06:32:33;;;;;;;127.82;69.60;;;;;;;-2.11;100.00;99303.97;4912767;29;20039;-91
2023/12/06 06:35:03;;;;;;;132.32;69.20;;;;;;;-1.99;100.00;99330.31;4913390;29;20036;-91
2023/12/06 06:37:28;;;;;;;131.18;65.65;;;;;;;-2.19;100.00;99307.38;4897329;29;20043;-91
2023/12/06 06:39:54;;;;;;;153.70;78.05;;;;;;;-2.02;100.00;99331.19;4893989;29;20048;-91
2023/12/06 06:42:20;;;;;;;126.30;66.60;;;;;;;-2.07;100.00;99333.72;4894310;29;20040;-91
2023/12/06 06:44:51;;;;;;;128.70;68.68;;;;;;;-2.18;100.00;99326.94;4894766;29;20076;-91
2023/12/06 06:47:19;;;;;;;135.48;70.72;;;;;;;-2.25;100.00;99326.09;4878448;29;20043;-90
2023/12/06 06:49:45;;;;;;;147.75;73.35;;;;;;;-2.24;100.00;99326.94;4879101;29;21030;-91
2023/12/06 06:52:11;;;;;;;125.35;67.72;;;;;;;-2.19;100.00;99338.88;4857682;29;20042;-91
2023/12/06 06:54:39;;;;;;;131.25;66.50;;;;;;;-2.14;100.00;99343.97;4857050;29;20440;-91
2023/12/06 06:57:05;;;;;;;134.00;68.50;;;;;;;-2.25;100.00;99318.44;4857330;29;20038;-90
2023/12/06 06:59:31;;;;;;;136.57;75.00;;;;;;;-2.12;100.00;99337.13;4857269;29;20029;-90
2023/12/06 07:01:58;;;;;;;140.52;71.90;;;;;;;-2.12;100.00;99335.44;4857977;29;20093;-90
2023/12/06 07:04:24;;;;;;;128.43;68.32;;;;;;;-2.21;100.00;99332.91;4857307;29;20108;-90
2023/12/06 07:06:52;;;;;;;132.85;69.38;;;;;;;-2.20;100.00;99334.59;4861432;29;20037;-90
2023/12/06 07:09:19;;;;;;;130.82;68.28;;;;;;;-2.39;100.00;99309.94;4878445;29;20041;-90
2023/12/06 07:11:46;;;;;;;129.90;68.35;;;;;;;-2.24;100.00;99340.53;4863950;29;20040;-90
2023/12/06 07:14:12;;;;;;;123.05;65.13;;;;;;;-2.31;100.00;99328.66;4879561;29;20089;-91
2023/12/06 07:16:38;;;;;;;128.90;66.88;;;;;;;-2.20;100.00;99343.94;4886533;29;20044;-90
2023/12/06 07:19:03;;;;;;;134.98;71.00;;;;;;;-2.21;100.00;99347.34;4900817;29;20028;-90
2023/12/06 07:21:29;;;;;;;128.85;65.75;;;;;;;-2.26;100.00;99338.00;4900799;29;20063;-91
2023/12/06 07:23:55;;;;;;;130.48;69.45;;;;;;;-2.37;100.00;99329.47;4947809;28;20127;-89
2023/12/06 07:26:23;;;;;;;135.43;70.28;;;;;;;-2.19;100.00;99354.16;4959158;28;20038;-90
2023/12/06 07:28:50;;;;;;;133.65;74.43;;;;;;;-2.29;100.00;99339.69;4959442;28;20065;-90
2023/12/06 07:31:18;;;;;;;148.95;76.38;;;;;;;-2.28;100.00;99342.22;4959365;28;20030;-90
2023/12/06 07:33:44;;;;;;;135.50;70.18;;;;;;;-2.39;100.00;99326.09;4959154;28;20399;-90
2023/12/06 07:36:14;;;;;;;133.40;70.47;;;;;;;-2.62;100.00;99284.44;4959401;28;20031;-91
2023/12/06 07:39:00;;;;;;;135.07;71.28;;;;;;;-2.22;100.00;99345.66;4954585;29;20059;-91
2023/12/06 07:41:30;;;;;;;126.75;67.50;;;;;;;-2.19;100.00;99335.44;4939441;29;20134;-91
2023/12/06 07:43:58;;;;;;;128.18;69.78;;;;;;;-2.14;100.00;99337.16;4939533;29;20040;-90
2023/12/06 07:46:44;;;;;;;154.38;80.32;;;;;;;-2.11;100.00;99347.34;4936121;29;20075;-91
2023/12/06 07:49:12;;;;;;;148.60;82.40;;;;;;;-2.08;100.00;99339.69;4935508;29;20503;-90
2023/12/06 07:51:39;;;;;;;178.40;105.40;;;;;;;-2.21;100.00;99316.75;4919150;29;20582;-91
2023/12/06 07:54:05;;;;;;;190.85;113.97;;;;;;;-2.01;100.00;99345.66;4919852;29;20121;-91
2023/12/06 07:56:33;;;;;;;158.38;88.70;;;;;;;-1.97;100.00;99349.06;4920271;29;20488;-89
2023/12/06 07:59:00;;;;;;;161.82;85.25;;;;;;;-1.91;100.00;99349.03;4919207;29;20048;-90
2023/12/06 08:01:31;;;;;;;184.18;93.47;;;;;;;-1.87;100.00;99346.47;4918975;29;20031;-90
2023/12/06 08:04:00;;;;;;;137.88;77.70;;;;;;;-1.90;100.00;99350.72;4904477;29;20048;-90
2023/12/06 08:06:27;;;;;;;144.32;79.97;;;;;;;-1.95;100.00;99340.53;4919940;29;20497;-91
2023/12/06 08:08:55;;;;;;;131.35;71.25;;;;;;;-1.96;100.00;99336.28;4919851;29;20114;-89
2023/12/06 08:11:21;;;;;;;145.15;76.28;;;;;;;-1.83;100.00;99348.16;4919184;29;20513;-91
2023/12/06 08:13:48;;;;;;;130.90;68.38;;;;;;;-1.73;100.00;99353.25;4935586;29;20409;-90
2023/12/06 08:16:14;;;;;;;130.80;68.95;;;;;;;-1.77;100.00;99357.50;4934802;29;20034;-91
2023/12/06 08:18:40;;;;;;;122.68;65.35;;;;;;;-1.79;100.00;99354.97;4934330;29;20492;-91
2023/12/06 08:21:09;;;;;;;117.82;63.60;;;;;;;-1.78;100.00;99355.81;4934469;29;20367;-90
2023/12/06 08:23:35;;;;;;;126.88;67.10;;;;;;;-1.78;100.00;99356.66;4944645;28;20041;-90
2023/12/06 08:26:04;;;;;;;120.82;64.88;;;;;;;-1.72;100.00;99353.28;4958812;28;20432;-90
2023/12/06 08:28:32;;;;;;;133.52;69.70;;;;;;;-1.75;100.00;99345.59;4958155;28;20031;-91
2023/12/06 08:30:58;;;;;;;120.30;62.03;;;;;;;-1.70;100.00;99353.25;4955319;28;20512;-91
2023/12/06 08:33:25;;;;;;;125.82;64.43;;;;;;;-1.68;100.00;99349.00;4957412;28;20031;-92
2023/12/06 08:35:53;;;;;;;117.60;64.13;;;;;;;-1.73;100.00;99327.72;4957738;28;20031;-91
2023/12/06 08:38:21;;;;;;;122.15;64.72;;;;;;;-1.55;100.00;99348.97;4940539;28;20038;-91
2023/12/06 08:40:47;;;;;;;116.63;62.22;;;;;;;-1.49;100.00;99355.75;4957819;28;20448;-91
2023/12/06 08:43:15;;;;;;;120.70;60.42;;;;;;;-1.51;100.00;99344.72;4957538;28;20035;-91
2023/12/06 08:45:43;;;;;;;119.60;63.75;;;;;;;-1.53;100.00;99342.13;4974619;28;20101;-90
2023/12/06 08:48:11;;;;;;;135.65;71.05;;;;;;;-1.39;100.00;99354.91;4925284;28;20042;-91
2023/12/06 08:50:38;;;;;;;117.82;61.95;;;;;;;-1.33;100.00;99356.56;4914755;29;20044;-90
2023/12/06 08:53:06;;;;;;;162.65;83.15;;;;;;;-1.32;100.00;99351.44;4914726;29;20040;-91
2023/12/06 08:55:33;;;;;;;165.35;85.93;;;;;;;-1.24;100.00;99353.97;4899017;29;20036;-91
2023/12/06 08:58:01;;;;;;;130.80;68.05;;;;;;;-1.23;100.00;99350.56;4899283;29;20378;-90
2023/12/06 09:00:29;;;;;;;137.60;71.40;;;;;;;-1.18;100.00;99355.66;4898941;29;20507;-90
2023/12/06 09:02:55;;;;;;;134.02;70.53;;;;;;;-1.16;100.00;99359.91;4883509;29;20040;-90
2023/12/06 09:05:23;;;;;;;115.22;60.17;;;;;;;-1.14;100.00;99357.34;4898794;29;20513;-90
2023/12/06 09:07:55;;;;;;;116.30;64.03;;;;;;;-1.13;100.00;99346.28;4879960;29;20132;-90
2023/12/06 09:10:22;;;;;;;111.18;60.83;;;;;;;-1.06;100.00;99348.78;4864774;29;20123;-90
2023/12/06 09:12:49;;;;;;;111.57;59.63;;;;;;;-1.00;100.00;99353.03;4895515;29;20044;-90
2023/12/06 09:15:16;;;;;;;114.78;57.50;;;;;;;-1.02;100.00;99345.34;4895427;29;20033;-90
2023/12/06 09:17:42;;;;;;;110.30;62.38;;;;;;;-0.98;100.00;99350.44;4895411;29;20368;-90
2023/12/06 09:20:27;;;;;;;117.57;62.15;;;;;;;-0.95;100.00;99346.19;4858530;29;20528;-89
2023/12/06 09:22:53;;;;;;;115.47;60.40;;;;;;;-0.93;100.00;99352.13;4841920;29;20060;-90
2023/12/06 09:25:42;;;;;;;103.38;60.17;;;;;;;-1.14;100.00;99301.13;4813094;29;20087;-90
2023/12/06 09:28:07;;;;;;;111.05;57.20;;;;;;;-1.18;100.00;99273.88;4808780;29;20137;-90
2023/12/06 09:30:57;;;;;;;108.10;57.42;;;;;;;-0.78;100.00;99328.19;4815360;29;20058;-90
2023/12/06 09:33:22;;;;;;;107.22;57.78;;;;;;;-0.55;100.00;99348.50;4827892;29;20038;-90
2023/12/06 09:36:08;;;;;;;114.18;62.00;;;;;;;-0.63;100.00;99338.34;4804925;29;20058;-91
2023/12/06 09:38:58;;;;;;;107.38;57.38;;;;;;;-0.62;100.00;99326.41;4792090;29;20059;-91
2023/12/06 09:41:47;;;;;;;113.10;61.75;;;;;;;-0.47;100.00;99358.69;4815530;29;20424;-90
2023/12/06 09:44:16;;;;;;;107.05;59.30;;;;;;;-0.69;100.00;99324.72;4809351;29;20125;-91
2023/12/06 09:46:46;;;;;;;115.05;62.60;;;;;;;-0.69;100.00;99319.63;4788588;29;20043;-90
2023/12/06 09:49:12;;;;;;;118.00;61.88;;;;;;;-0.70;100.00;99308.53;4793329;29;20080;-90
2023/12/06 09:51:40;;;;;;;118.50;63.53;;;;;;;-0.66;100.00;99312.78;4837019;29;20072;-90
2023/12/06 09:54:06;;;;;;;117.40;63.53;;;;;;;-0.72;100.00;99320.47;4830199;29;20031;-90
2023/12/06 09:56:34;;;;;;;117.85;64.97;;;;;;;-0.80;100.00;99317.97;4859292;29;20040;-90
2023/12/06 09:59:00;;;;;;;121.25;63.97;;;;;;;-0.60;100.00;99355.34;4873993;29;20022;-91
2023/12/06 10:01:25;;;;;;;125.78;69.72;;;;;;;-0.74;100.00;99331.59;4866292;29;20078;-90
2023/12/06 10:04:11;;;;;;;116.47;63.28;;;;;;;-0.62;100.00;99352.81;4845860;29;20067;-90
2023/12/06 10:06:37;;;;;;;123.35;67.30;;;;;;;-0.78;100.00;99321.38;4847330;29;20041;-90
2023/12/06 10:09:10;;;;;;;122.10;66.63;;;;;;;-0.59;100.00;99347.69;4854889;29;20523;-89
2023/12/06 10:11:36;;;;;;;126.45;70.60;;;;;;;-0.62;100.00;99331.50;4844719;29;20041;-89
2023/12/06 10:14:02;;;;;;;124.38;68.50;;;;;;;-0.62;100.00;99321.28;4875904;29;20049;-89
2023/12/06 10:16:48;;;;;;;129.90;69.28;;;;;;;-0.90;100.00;99269.47;4873377;29;20044;-89
2023/12/06 10:19:19;;;;;;;145.15;73.25;;;;;;;-0.92;100.00;99272.03;4820862;29;20149;-89
2023/12/06 10:21:49;;;;;;;124.93;68.75;;;;;;;-0.62;100.00;99306.78;4838727;29;20049;-89
2023/12/06 10:24:15;;;;;;;133.07;70.82;;;;;;;-0.39;100.00;99337.31;4839091;29;20069;-89
2023/12/06 10:26:42;;;;;;;118.15;65.28;;;;;;;-0.28;100.00;99342.34;4823764;29;20114;-89
2023/12/06 10:29:09;;;;;;;122.70;65.72;;;;;;;-0.26;100.00;99341.47;4838531;29;20061;-90
2023/12/06 10:31:42;;;;;;;129.68;69.90;;;;;;;-0.70;100.00;99259.94;4867490;29;20436;-90
2023/12/06 10:34:09;;;;;;;132.15;70.90;;;;;;;-0.29;100.00;99336.38;4896924;29;20123;-90
2023/12/06 10:36:41;;;;;;;122.95;67.20;;;;;;;-0.29;100.00;99338.94;4916078;29;20414;-91
2023/12/06 10:39:12;;;;;;;132.48;73.88;;;;;;;-0.28;100.00;99327.00;4915664;29;20457;-90
2023/12/06 10:41:42;;;;;;;129.18;68.13;;;;;;;-0.16;100.00;99339.69;4916136;29;20032;-91
2023/12/06 10:44:10;;;;;;;125.53;71.80;;;;;;;-0.23;100.00;99302.22;4918979;29;20035;-91
2023/12/06 10:46:37;;;;;;;126.60;65.75;;;;;;;0.03;100.00;99334.41;4920227;29;20506;-90
2023/12/06 10:49:06;;;;;;;120.50;67.53;;;;;;;-0.01;100.00;99319.06;4920745;28;20511;-90
2023/12/06 10:51:34;;;;;;;124.95;66.88;;;;;;;0.16;100.00;99329.16;4959187;28;20129;-90
2023/12/06 10:54:02;;;;;;;128.27;69.38;;;;;;;0.28;100.00;99332.47;4959411;28;20022;-89
2023/12/06 10:56:28;;;;;;;118.78;69.22;;;;;;;0.35;100.00;99334.94;4959165;28;20117;-89
2023/12/06 10:58:56;;;;;;;117.22;66.55;;;;;;;0.36;100.00;99330.66;4959301;28;20030;-90
2023/12/06 11:01:24;;;;;;;115.65;66.18;;;;;;;0.43;100.00;99328.03;4959144;28;20373;-89
2023/12/06 11:03:52;;;;;;;121.93;66.60;;;;;;;0.50;100.00;99321.94;4959098;28;20089;-89